Time;durP1;ratioP1;P1;durP2;ratioP2;P2;SDS_P1;SDS_P2;PMS_P1;PMS_P2;Temp;Humidity;BMP_temperature;BMP_pressure;BME280_temperature;BME280_humidity;BME280_pressure;Samples;Min_cycle;Max_cycle;Signal;HPM_P1;HPM_P2
2021/06/22 00:00:36;;;;;;;0.35;0.35;;;;;;;20.12;71.90;100159.81;6035771;23;20481;-80
2021/06/22 00:03:03;;;;;;;0.50;0.30;;;;;;;20.10;72.44;100169.28;6009668;23;20142;-80
2021/06/22 00:05:31;;;;;;;0.50;0.40;;;;;;;20.09;72.52;100168.44;6035921;23;20046;-79
2021/06/22 00:07:57;;;;;;;2.38;0.60;;;;;;;20.15;72.25;100175.03;6033965;23;20087;-78
2021/06/22 00:10:28;;;;;;;0.45;0.40;;;;;;;20.19;72.22;100173.59;6010502;23;20019;-79
2021/06/22 00:12:55;;;;;;;0.90;0.47;;;;;;;20.21;72.82;100174.22;6011456;23;20027;-80
2021/06/22 00:15:23;;;;;;;0.82;0.50;;;;;;;20.22;72.02;100170.44;6011169;23;20030;-79
2021/06/22 00:17:50;;;;;;;0.73;0.52;;;;;;;20.18;72.01;100180.97;6035769;23;20038;-79
2021/06/22 00:20:17;;;;;;;0.60;0.40;;;;;;;20.10;72.18;100172.03;6033709;23;20031;-78
2021/06/22 00:22:44;;;;;;;0.95;0.50;;;;;;;20.08;72.94;100171.41;6032726;23;20047;-79
2021/06/22 00:25:13;;;;;;;0.60;0.50;;;;;;;20.03;72.41;100165.63;6035108;23;20029;-79
2021/06/22 00:27:39;;;;;;;0.60;0.50;;;;;;;20.04;72.42;100170.06;6034849;23;20029;-78
2021/06/22 00:30:06;;;;;;;0.77;0.50;;;;;;;20.03;73.04;100182.09;6032801;23;20047;-79
2021/06/22 00:32:32;;;;;;;0.47;0.47;;;;;;;19.99;73.00;100182.50;6009175;23;20362;-79
2021/06/22 00:34:58;;;;;;;0.68;0.40;;;;;;;19.97;73.43;100184.63;6009667;23;20023;-79
2021/06/22 00:37:24;;;;;;;1.17;0.55;;;;;;;19.99;72.93;100188.00;5985474;23;20080;-78
2021/06/22 00:39:50;;;;;;;1.33;0.40;;;;;;;19.93;72.76;100183.31;6009311;23;20055;-77
2021/06/22 00:42:16;;;;;;;0.82;0.50;;;;;;;19.91;73.06;100179.91;6010389;23;20091;-79
2021/06/22 00:44:48;;;;;;;0.50;0.50;;;;;;;19.89;73.60;100175.66;6035003;23;20023;-79
2021/06/22 00:47:16;;;;;;;0.43;0.40;;;;;;;19.94;73.21;100181.41;6012150;23;20412;-78
2021/06/22 00:49:51;;;;;;;0.70;0.60;;;;;;;19.92;73.20;100178.84;6014041;23;20027;-78
2021/06/22 00:52:24;;;;;;;1.23;0.52;;;;;;;19.91;73.43;100179.91;6010652;23;20030;-80
2021/06/22 00:54:51;;;;;;;0.35;0.35;;;;;;;19.91;73.35;100185.41;6033346;23;20369;-78
2021/06/22 00:57:19;;;;;;;0.45;0.40;;;;;;;19.88;73.69;100185.78;6063532;23;20023;-80
2021/06/22 00:59:46;;;;;;;0.30;0.30;;;;;;;19.83;73.61;100182.81;6038308;23;20049;-78
2021/06/22 01:02:12;;;;;;;0.50;0.40;;;;;;;19.80;74.33;100188.69;6038165;23;20027;-78
2021/06/22 01:04:38;;;;;;;0.40;0.40;;;;;;;19.84;73.76;100183.66;6061726;23;20022;-78
2021/06/22 01:07:27;;;;;;;0.47;0.30;;;;;;;19.81;73.93;100187.63;6054852;23;20045;-78
2021/06/22 01:09:55;;;;;;;0.65;0.45;;;;;;;19.81;73.76;100184.88;6063119;23;20027;-78
2021/06/22 01:12:21;;;;;;;0.50;0.40;;;;;;;19.83;73.67;100176.47;6062894;23;20034;-79
2021/06/22 01:14:48;;;;;;;0.60;0.50;;;;;;;19.85;73.96;100186.19;6037487;23;20166;-77
2021/06/22 01:17:14;;;;;;;0.30;0.30;;;;;;;19.81;74.10;100193.13;6037971;23;20026;-79
2021/06/22 01:19:40;;;;;;;1.27;0.50;;;;;;;19.80;74.00;100194.19;6063841;23;20070;-78
2021/06/22 01:22:06;;;;;;;0.85;0.50;;;;;;;19.81;74.43;100184.88;6061246;23;20421;-79
2021/06/22 01:24:45;;;;;;;0.70;0.40;;;;;;;19.75;74.28;100177.47;6037678;23;20158;-78
2021/06/22 01:27:13;;;;;;;0.50;0.50;;;;;;;19.71;74.34;100185.25;6063054;23;20347;-79
2021/06/22 01:29:39;;;;;;;0.50;0.50;;;;;;;19.69;74.89;100189.22;6037314;23;20023;-79
2021/06/22 01:32:08;;;;;;;0.88;0.80;;;;;;;19.68;74.74;100190.28;6037721;23;20430;-77
2021/06/22 01:34:40;;;;;;;0.40;0.40;;;;;;;19.71;74.64;100200.88;6065501;23;20067;-78
2021/06/22 01:37:08;;;;;;;1.02;0.50;;;;;;;19.71;74.48;100190.75;5992340;23;20028;-79
2021/06/22 01:39:40;;;;;;;0.90;0.47;;;;;;;19.72;74.27;100197.06;6040317;23;20105;-78
2021/06/22 01:42:06;;;;;;;1.98;0.80;;;;;;;19.77;74.10;100200.06;6063228;23;20034;-78
2021/06/22 01:44:37;;;;;;;3.25;1.02;;;;;;;19.85;73.97;100202.66;6038725;23;20359;-79
2021/06/22 01:47:04;;;;;;;1.70;0.70;;;;;;;19.88;73.69;100191.28;6065296;23;20362;-78
2021/06/22 01:49:31;;;;;;;2.20;0.88;;;;;;;19.91;73.84;100196.38;6039237;23;20022;-78
2021/06/22 01:51:57;;;;;;;6.82;2.90;;;;;;;19.94;73.55;100200.63;6013539;23;20102;-77
2021/06/22 01:54:25;;;;;;;2.03;0.82;;;;;;;20.02;72.88;100207.88;6043338;23;20023;-77
2021/06/22 01:56:54;;;;;;;1.77;0.90;;;;;;;20.10;72.17;100215.94;6008251;23;20077;-78
2021/06/22 01:59:21;;;;;;;3.30;0.93;;;;;;;20.16;72.48;100212.41;6011345;23;20030;-78
2021/06/22 02:02:20;;;;;;;2.08;0.90;;;;;;;20.23;71.96;100210.56;5993165;23;20031;-77
2021/06/22 02:05:02;;;;;;;2.00;0.70;;;;;;;20.30;71.62;100205.97;5970185;23;20023;-79
2021/06/22 02:07:28;;;;;;;7.28;2.10;;;;;;;20.36;72.83;100209.78;5987790;23;20023;-77
2021/06/22 02:10:27;;;;;;;3.08;1.10;;;;;;;20.43;72.83;100216.19;6018735;23;20023;-80
2021/06/22 02:13:10;;;;;;;1.27;0.52;;;;;;;20.48;72.36;100214.53;6035857;23;20023;-79
2021/06/22 02:15:40;;;;;;;1.15;0.60;;;;;;;20.48;72.98;100220.03;6033466;23;20054;-77
2021/06/22 02:18:07;;;;;;;1.45;0.80;;;;;;;20.51;72.62;100223.44;6034258;23;20024;-78
2021/06/22 02:20:36;;;;;;;0.70;0.60;;;;;;;20.54;72.71;100228.53;6036244;23;20023;-77
2021/06/22 02:23:03;;;;;;;0.65;0.60;;;;;;;20.60;72.31;100216.75;6035982;23;20433;-78
2021/06/22 02:25:29;;;;;;;2.08;0.80;;;;;;;20.66;71.81;100210.44;6011125;23;20023;-79
2021/06/22 02:28:11;;;;;;;0.73;0.65;;;;;;;20.76;72.13;100215.56;6038685;23;20023;-78
2021/06/22 02:30:38;;;;;;;1.90;0.80;;;;;;;20.88;71.72;100217.53;6025448;23;20023;-77
2021/06/22 02:33:04;;;;;;;1.38;0.80;;;;;;;20.99;71.34;100231.72;6048865;23;20022;-76
2021/06/22 02:35:31;;;;;;;1.58;0.93;;;;;;;21.11;70.03;100230.09;6027826;23;20027;-77
2021/06/22 02:38:04;;;;;;;1.50;0.80;;;;;;;21.18;68.32;100236.47;6054544;23;20019;-78
2021/06/22 02:40:31;;;;;;;1.17;0.77;;;;;;;21.28;67.86;100236.94;6054781;23;20028;-77
2021/06/22 02:42:59;;;;;;;2.45;0.82;;;;;;;21.40;66.98;100235.31;6008393;23;20023;-78
2021/06/22 02:45:27;;;;;;;2.88;1.20;;;;;;;21.51;65.89;100235.75;6051281;23;20039;-76
2021/06/22 02:47:53;;;;;;;4.07;1.20;;;;;;;21.65;65.22;100231.97;6051895;23;20019;-77
2021/06/22 02:50:22;;;;;;;1.75;1.00;;;;;;;21.75;64.93;100234.28;6022727;23;20023;-77
2021/06/22 02:52:48;;;;;;;0.60;0.60;;;;;;;21.83;64.94;100229.47;6048824;23;20364;-78
2021/06/22 02:55:18;;;;;;;2.15;0.90;;;;;;;21.92;64.66;100225.41;6054152;23;20469;-77
2021/06/22 02:57:55;;;;;;;2.28;0.90;;;;;;;22.10;64.01;100235.81;6055125;23;20003;-77
2021/06/22 03:00:25;;;;;;;0.98;0.60;;;;;;;22.24;63.60;100231.16;6043507;23;20031;-78
2021/06/22 03:02:51;;;;;;;1.85;0.77;;;;;;;22.41;63.72;100230.72;6010766;23;20430;-78
2021/06/22 03:05:19;;;;;;;1.95;0.63;;;;;;;22.54;63.44;100223.28;6011082;23;20023;-80
2021/06/22 03:07:46;;;;;;;0.82;0.77;;;;;;;22.69;63.82;100234.06;6036098;23;20086;-79
2021/06/22 03:10:14;;;;;;;1.27;0.90;;;;;;;22.79;63.17;100226.19;6035928;23;20072;-78
2021/06/22 03:12:40;;;;;;;0.73;0.70;;;;;;;22.94;62.71;100225.09;6034222;23;20023;-79
2021/06/22 03:15:35;;;;;;;0.57;0.55;;;;;;;23.00;62.56;100218.69;6014654;23;20023;-78
2021/06/22 03:18:02;;;;;;;0.50;0.50;;;;;;;23.17;61.99;100225.41;6034396;23;20027;-79
2021/06/22 03:20:33;;;;;;;1.00;0.60;;;;;;;23.34;61.95;100232.13;6034176;23;20031;-79
2021/06/22 03:23:01;;;;;;;0.88;0.43;;;;;;;23.48;61.24;100226.53;6010588;23;20027;-79
2021/06/22 03:25:28;;;;;;;0.60;0.55;;;;;;;23.54;61.53;100220.13;6034656;23;20027;-83
2021/06/22 03:28:01;;;;;;;1.00;0.52;;;;;;;23.72;60.91;100228.50;6034344;23;20046;-78
2021/06/22 03:30:30;;;;;;;0.45;0.40;;;;;;;23.83;60.66;100227.78;6035563;23;20015;-80
2021/06/22 03:32:56;;;;;;;0.52;0.40;;;;;;;23.99;60.28;100233.88;5962636;23;20473;-78
2021/06/22 03:35:26;;;;;;;0.80;0.50;;;;;;;24.18;59.44;100227.31;6010363;23;20355;-79
2021/06/22 03:37:53;;;;;;;0.52;0.52;;;;;;;24.34;59.38;100219.50;6009697;23;20103;-80
2021/06/22 03:40:21;;;;;;;0.63;0.50;;;;;;;24.52;58.94;100222.34;5963676;23;20124;-79
2021/06/22 03:42:48;;;;;;;0.63;0.50;;;;;;;24.70;58.60;100219.56;6009415;23;20027;-80
2021/06/22 03:45:14;;;;;;;0.52;0.50;;;;;;;24.92;57.98;100231.03;5963172;23;20027;-81
2021/06/22 03:47:44;;;;;;;0.60;0.50;;;;;;;25.13;57.20;100231.66;6009470;23;20023;-78
2021/06/22 03:50:12;;;;;;;2.47;0.63;;;;;;;25.31;57.33;100239.09;6010156;23;20023;-81
2021/06/22 03:52:39;;;;;;;0.90;0.60;;;;;;;25.59;56.47;100236.53;6010512;23;20019;-81
2021/06/22 03:55:27;;;;;;;1.23;0.50;;;;;;;25.83;56.07;100233.88;6006582;23;20046;-80
2021/06/22 03:58:10;;;;;;;1.63;0.60;;;;;;;26.06;55.66;100233.91;6013752;23;20061;-82
2021/06/22 04:00:40;;;;;;;3.22;0.95;;;;;;;26.20;55.65;100235.38;6036231;23;20139;-80
2021/06/22 04:03:13;;;;;;;0.60;0.60;;;;;;;26.46;54.00;100244.34;6032687;23;20410;-79
2021/06/22 04:05:46;;;;;;;1.17;0.45;;;;;;;26.68;52.65;100233.50;6031607;23;20034;-80
2021/06/22 04:08:30;;;;;;;1.23;0.50;;;;;;;26.93;51.75;100249.84;6033057;23;20030;-79
2021/06/22 04:11:04;;;;;;;0.68;0.55;;;;;;;27.13;51.56;100238.38;6034572;23;20023;-79
2021/06/22 04:13:31;;;;;;;0.93;0.60;;;;;;;27.35;50.68;100235.75;6010215;23;20049;-79
2021/06/22 04:15:59;;;;;;;2.13;0.65;;;;;;;27.53;50.28;100237.50;6036285;23;20019;-80
2021/06/22 04:18:26;;;;;;;1.55;0.60;;;;;;;27.70;49.56;100230.03;6056390;23;20177;-81
2021/06/22 04:20:54;;;;;;;0.80;0.50;;;;;;;27.58;48.33;100235.66;6009043;23;20019;-82
2021/06/22 04:23:23;;;;;;;1.25;0.47;;;;;;;27.76;48.21;100236.59;6034776;23;20363;-79
2021/06/22 04:25:52;;;;;;;0.82;0.40;;;;;;;28.06;47.40;100234.34;6035309;23;20019;-82
2021/06/22 04:28:20;;;;;;;1.15;0.60;;;;;;;28.24;47.21;100237.97;6032773;23;20090;-80
2021/06/22 04:30:46;;;;;;;0.45;0.32;;;;;;;28.37;46.90;100240.38;6009099;23;20051;-81
2021/06/22 04:33:12;;;;;;;0.88;0.40;;;;;;;28.48;46.60;100239.47;6008220;23;20026;-80
2021/06/22 04:35:38;;;;;;;0.50;0.50;;;;;;;28.79;46.25;100237.16;6034371;23;20054;-80
2021/06/22 04:38:07;;;;;;;0.73;0.60;;;;;;;28.40;46.86;100241.84;6010824;23;20105;-79
2021/06/22 04:40:34;;;;;;;1.52;0.60;;;;;;;28.08;47.99;100246.06;6036622;23;20019;-79
2021/06/22 04:43:00;;;;;;;0.50;0.50;;;;;;;28.04;48.74;100244.84;6034060;23;20067;-79
2021/06/22 04:45:27;;;;;;;0.65;0.50;;;;;;;28.14;48.28;100244.19;6034751;23;20438;-78
2021/06/22 04:47:54;;;;;;;0.82;0.50;;;;;;;28.16;48.83;100242.00;6034569;23;20034;-76
2021/06/22 04:50:20;;;;;;;1.02;0.50;;;;;;;28.70;47.71;100235.91;6009706;23;20042;-79
2021/06/22 04:52:46;;;;;;;1.00;0.50;;;;;;;28.97;47.27;100236.00;6034392;23;20117;-78
2021/06/22 04:55:13;;;;;;;0.52;0.52;;;;;;;28.83;47.15;100241.09;6013322;23;20046;-80
2021/06/22 04:57:44;;;;;;;0.90;0.50;;;;;;;28.92;45.72;100238.69;6063402;23;20023;-81
2021/06/22 05:00:12;;;;;;;1.35;0.60;;;;;;;29.47;45.91;100246.97;6016862;23;20530;-79
2021/06/22 05:02:42;;;;;;;0.70;0.60;;;;;;;29.59;45.88;100238.47;6015338;23;20486;-80
2021/06/22 05:05:10;;;;;;;0.50;0.50;;;;;;;29.89;44.50;100240.72;6038815;23;20023;-81
2021/06/22 05:07:45;;;;;;;1.02;0.60;;;;;;;30.19;43.97;100253.28;6040033;23;20027;-80
2021/06/22 05:10:11;;;;;;;0.70;0.40;;;;;;;30.17;44.50;100249.94;6063940;23;20029;-79
2021/06/22 05:12:42;;;;;;;0.57;0.50;;;;;;;30.48;43.66;100257.41;6065824;23;20029;-80
2021/06/22 05:15:09;;;;;;;0.52;0.52;;;;;;;30.81;43.51;100255.41;6063475;23;20019;-78
2021/06/22 05:17:39;;;;;;;0.95;0.70;;;;;;;30.82;43.87;100256.25;6039023;23;20102;-78
2021/06/22 05:20:06;;;;;;;0.85;0.60;;;;;;;30.75;42.99;100245.31;6063664;23;20038;-81
2021/06/22 05:22:35;;;;;;;0.70;0.50;;;;;;;31.09;42.92;100245.78;6061307;23;20023;-78
2021/06/22 05:25:02;;;;;;;0.73;0.70;;;;;;;30.92;41.84;100251.56;6024718;23;20064;-78
2021/06/22 05:27:28;;;;;;;0.60;0.60;;;;;;;31.10;41.13;100253.06;6034030;23;20051;-80
2021/06/22 05:29:54;;;;;;;0.70;0.65;;;;;;;31.13;41.47;100255.31;6009595;23;20046;-78
2021/06/22 05:32:20;;;;;;;0.57;0.50;;;;;;;31.03;41.49;100246.03;6030773;23;20304;-80
2021/06/22 05:34:47;;;;;;;1.27;0.70;;;;;;;31.03;41.09;100257.22;6007885;23;20056;-79
2021/06/22 05:37:12;;;;;;;0.77;0.70;;;;;;;31.40;40.74;100252.34;6033646;23;20015;-80
2021/06/22 05:39:41;;;;;;;0.70;0.70;;;;;;;31.68;39.59;100255.78;6033375;23;20044;-77
2021/06/22 05:42:07;;;;;;;0.70;0.70;;;;;;;32.16;39.52;100259.22;6034262;23;20168;-80
2021/06/22 05:44:33;;;;;;;0.85;0.73;;;;;;;32.59;39.23;100259.81;5986483;23;20019;-79
2021/06/22 05:47:01;;;;;;;0.75;0.75;;;;;;;32.70;38.57;100255.84;6033789;23;20023;-81
2021/06/22 05:49:27;;;;;;;0.80;0.80;;;;;;;32.75;38.19;100257.81;6008853;23;20050;-80
2021/06/22 05:51:53;;;;;;;0.70;0.70;;;;;;;32.65;38.82;100258.66;6035605;23;20129;-79
2021/06/22 05:54:21;;;;;;;0.73;0.70;;;;;;;32.76;38.06;100257.50;6017962;23;20027;-78
2021/06/22 05:56:47;;;;;;;0.65;0.60;;;;;;;32.92;37.37;100249.09;5981984;23;20100;-80
2021/06/22 05:59:13;;;;;;;0.77;0.70;;;;;;;33.06;37.15;100247.38;5982871;23;20020;-79
2021/06/22 06:01:39;;;;;;;0.60;0.60;;;;;;;33.64;36.42;100250.50;5985221;23;20114;-80
2021/06/22 06:04:05;;;;;;;0.82;0.70;;;;;;;33.31;36.28;100236.06;6012434;23;20023;-78
2021/06/22 06:06:31;;;;;;;0.70;0.70;;;;;;;33.25;36.89;100242.81;5988022;23;20024;-78
2021/06/22 06:08:57;;;;;;;0.70;0.70;;;;;;;33.53;37.13;100237.63;5986680;23;20072;-78
2021/06/22 06:11:26;;;;;;;0.70;0.70;;;;;;;33.60;36.72;100241.81;5987122;23;20032;-80
2021/06/22 06:13:52;;;;;;;1.48;0.70;;;;;;;33.87;36.56;100236.88;5987606;23;20119;-80
2021/06/22 06:16:18;;;;;;;1.52;1.00;;;;;;;34.08;36.67;100239.25;6010468;23;20032;-82
2021/06/22 06:18:45;;;;;;;0.93;0.82;;;;;;;34.53;36.09;100233.53;5985820;23;20032;-80
2021/06/22 06:21:11;;;;;;;0.80;0.80;;;;;;;34.60;36.25;100242.47;6009903;23;20023;-80
2021/06/22 06:23:42;;;;;;;0.80;0.80;;;;;;;34.94;35.46;100233.91;5985986;23;20084;-81
2021/06/22 06:26:11;;;;;;;1.08;0.90;;;;;;;34.97;35.42;100238.09;6013981;23;20479;-80
2021/06/22 06:28:45;;;;;;;0.77;0.77;;;;;;;35.08;35.08;100238.84;6010436;23;20039;-79
2021/06/22 06:31:11;;;;;;;0.80;0.80;;;;;;;34.87;35.43;100238.22;5984981;23;20558;-78
2021/06/22 06:33:37;;;;;;;1.08;0.90;;;;;;;35.57;35.31;100230.03;5984207;23;20051;-81
2021/06/22 06:36:04;;;;;;;0.80;0.80;;;;;;;35.56;34.56;100225.56;5983873;23;20099;-80
2021/06/22 06:38:30;;;;;;;3.03;1.00;;;;;;;35.80;34.37;100233.06;5962923;23;20075;-81
2021/06/22 06:40:56;;;;;;;1.15;1.05;;;;;;;35.77;34.25;100236.53;5985206;23;20454;-83
2021/06/22 06:43:22;;;;;;;1.67;0.90;;;;;;;35.53;34.65;100228.16;5987535;23;20098;-80
2021/06/22 06:45:48;;;;;;;0.95;0.88;;;;;;;35.56;34.95;100227.53;5961633;23;20063;-82
2021/06/22 06:48:15;;;;;;;1.10;1.00;;;;;;;36.43;33.94;100224.16;6011827;23;20035;-81
2021/06/22 06:50:42;;;;;;;1.00;0.80;;;;;;;37.27;32.16;100225.94;5964746;23;20427;-78
2021/06/22 06:53:08;;;;;;;1.13;0.90;;;;;;;37.74;31.59;100232.22;5988106;23;20132;-81
2021/06/22 06:55:41;;;;;;;1.52;0.93;;;;;;;38.09;30.93;100231.34;5963708;23;20363;-81
2021/06/22 06:58:07;;;;;;;0.80;0.80;;;;;;;38.41;30.27;100237.91;6010991;23;20464;-83
2021/06/22 07:00:36;;;;;;;1.63;0.98;;;;;;;38.45;29.62;100238.09;5990035;23;20505;-83
2021/06/22 07:03:04;;;;;;;0.90;0.90;;;;;;;38.75;29.32;100242.06;6012599;23;20119;-81
2021/06/22 07:05:32;;;;;;;1.17;1.08;;;;;;;39.17;29.71;100239.78;5988853;23;20024;-84
2021/06/22 07:07:59;;;;;;;1.85;1.10;;;;;;;39.02;29.92;100241.06;5987976;23;20028;-82
2021/06/22 07:10:27;;;;;;;1.10;1.00;;;;;;;37.36;30.70;100241.78;5969254;23;20079;-82
2021/06/22 07:12:56;;;;;;;1.90;1.10;;;;;;;38.47;29.51;100242.28;6012408;23;20015;-82
2021/06/22 07:15:23;;;;;;;1.50;1.15;;;;;;;39.28;28.38;100244.00;5988362;23;20030;-81
2021/06/22 07:17:49;;;;;;;1.85;1.10;;;;;;;39.46;28.50;100240.03;5988519;23;20023;-83
2021/06/22 07:20:16;;;;;;;1.15;1.05;;;;;;;39.53;28.09;100240.38;6015217;23;20084;-82
2021/06/22 07:22:42;;;;;;;2.08;1.02;;;;;;;39.59;27.61;100234.53;5990549;23;20055;-83
2021/06/22 07:25:08;;;;;;;1.00;1.00;;;;;;;38.79;28.02;100240.25;5990025;23;20024;-81
2021/06/22 07:27:35;;;;;;;1.10;1.00;;;;;;;38.92;28.10;100230.88;5986236;23;20379;-82
2021/06/22 07:30:02;;;;;;;0.95;0.90;;;;;;;39.40;27.02;100230.03;5964449;23;20047;-81
2021/06/22 07:32:30;;;;;;;1.25;1.00;;;;;;;39.93;25.31;100230.91;5987210;23;20023;-81
2021/06/22 07:34:57;;;;;;;0.90;0.90;;;;;;;39.43;26.53;100234.22;5987858;23;20087;-80
2021/06/22 07:37:24;;;;;;;1.00;1.00;;;;;;;40.16;25.96;100225.94;5985177;23;20027;-83
2021/06/22 07:39:50;;;;;;;0.90;0.90;;;;;;;39.87;26.29;100232.25;5985557;23;20027;-82
2021/06/22 07:42:16;;;;;;;0.90;0.90;;;;;;;39.46;27.33;100227.88;5987908;23;20028;-82
2021/06/22 07:44:43;;;;;;;0.80;0.80;;;;;;;38.76;28.12;100232.44;6013351;23;20042;-83
2021/06/22 07:47:09;;;;;;;1.55;1.10;;;;;;;39.60;27.77;100234.19;5986999;23;20134;-82
2021/06/22 07:49:36;;;;;;;1.40;1.13;;;;;;;40.46;24.85;100226.88;5963356;23;20024;-80
2021/06/22 07:52:06;;;;;;;1.33;0.93;;;;;;;41.05;25.60;100237.53;5984361;23;20052;-82
2021/06/22 07:54:33;;;;;;;1.10;1.00;;;;;;;41.28;25.36;100241.72;5973327;23;20051;-81
2021/06/22 07:56:59;;;;;;;1.08;1.05;;;;;;;41.37;25.06;100242.50;6008836;23;20625;-81
2021/06/22 07:59:28;;;;;;;1.00;1.00;;;;;;;41.61;25.47;100243.88;5986066;23;20030;-79
2021/06/22 08:01:54;;;;;;;1.35;1.08;;;;;;;40.77;26.21;100242.78;6009391;23;20031;-81
2021/06/22 08:04:20;;;;;;;1.20;1.10;;;;;;;40.60;26.24;100238.84;6007864;23;20031;-81
2021/06/22 08:06:47;;;;;;;1.40;1.13;;;;;;;40.66;25.82;100242.31;6006733;23;20027;-82
2021/06/22 08:09:19;;;;;;;2.00;1.15;;;;;;;41.43;25.35;100238.34;5960212;23;20087;-81
2021/06/22 08:11:46;;;;;;;1.17;1.10;;;;;;;41.30;25.85;100250.72;6008261;23;20028;-81
2021/06/22 08:14:12;;;;;;;1.38;1.27;;;;;;;40.79;26.67;100244.13;6008345;23;20023;-82
2021/06/22 08:16:38;;;;;;;2.38;1.10;;;;;;;40.45;26.86;100243.03;6009185;23;20576;-81
2021/06/22 08:19:05;;;;;;;2.45;1.20;;;;;;;39.83;27.06;100240.59;5985739;23;20043;-82
2021/06/22 08:21:31;;;;;;;1.20;1.10;;;;;;;41.14;25.86;100242.00;6011410;23;20107;-82
2021/06/22 08:23:58;;;;;;;1.10;1.10;;;;;;;41.01;26.07;100245.06;5965021;23;20028;-83
2021/06/22 08:26:25;;;;;;;1.48;1.10;;;;;;;42.03;24.78;100244.72;5988187;23;20031;-81
2021/06/22 08:28:51;;;;;;;1.30;1.20;;;;;;;42.80;23.40;100250.78;6010993;23;20086;-81
2021/06/22 08:31:19;;;;;;;1.92;1.20;;;;;;;42.37;24.30;100254.09;5986518;23;20030;-82
2021/06/22 08:33:46;;;;;;;1.45;1.20;;;;;;;41.86;25.06;100240.00;5988083;23;20125;-85
2021/06/22 08:36:14;;;;;;;1.20;1.10;;;;;;;42.12;24.90;100239.78;5985698;23;20019;-83
2021/06/22 08:38:40;;;;;;;1.20;1.10;;;;;;;40.33;26.75;100245.72;5984650;23;20473;-82
2021/06/22 08:41:07;;;;;;;1.30;1.00;;;;;;;42.08;25.02;100246.50;5960574;23;20471;-82
2021/06/22 08:43:54;;;;;;;2.92;2.55;;;;;;;42.59;23.58;100250.00;5983049;23;20131;-83
2021/06/22 08:46:20;;;;;;;1.55;1.20;;;;;;;42.77;23.55;100244.97;5985571;23;20443;-81
2021/06/22 08:48:46;;;;;;;1.75;1.35;;;;;;;42.94;23.16;100238.25;6007608;23;20020;-82
2021/06/22 08:51:14;;;;;;;2.58;1.30;;;;;;;43.39;23.41;100243.81;6009713;23;20055;-81
2021/06/22 08:53:40;;;;;;;1.42;1.20;;;;;;;43.71;22.97;100244.84;6008922;23;20020;-84
2021/06/22 08:56:08;;;;;;;1.60;1.10;;;;;;;43.31;22.47;100251.28;5989658;23;20028;-82
2021/06/22 08:58:35;;;;;;;2.40;1.20;;;;;;;42.82;22.91;100242.75;5989163;23;20038;-83
2021/06/22 09:01:02;;;;;;;1.88;1.30;;;;;;;42.82;23.06;100239.91;5991283;23;20024;-84
2021/06/22 09:03:29;;;;;;;1.67;1.20;;;;;;;41.99;24.44;100223.88;5988510;23;20031;-80
2021/06/22 09:06:00;;;;;;;1.40;1.30;;;;;;;42.84;23.13;100225.31;5988004;23;20107;-82
2021/06/22 09:08:32;;;;;;;1.27;1.15;;;;;;;41.98;23.07;100230.75;6006028;23;20086;-79
2021/06/22 09:11:15;;;;;;;1.20;1.10;;;;;;;41.49;22.34;100226.75;6006485;23;20028;-84
2021/06/22 09:13:44;;;;;;;1.20;1.10;;;;;;;42.16;21.41;100222.84;5987929;23;20023;-82
2021/06/22 09:16:14;;;;;;;1.20;1.10;;;;;;;42.20;23.30;100226.69;5963885;23;20024;-83
2021/06/22 09:18:44;;;;;;;1.30;1.17;;;;;;;41.36;24.71;100225.84;6007194;23;20055;-80
2021/06/22 09:21:15;;;;;;;1.02;1.02;;;;;;;41.58;24.88;100230.38;5988300;23;20127;-84
2021/06/22 09:23:43;;;;;;;1.30;1.20;;;;;;;42.53;23.69;100218.16;6006206;23;20471;-83
2021/06/22 09:26:15;;;;;;;1.30;1.20;;;;;;;42.47;23.79;100215.88;5990512;23;20268;-82
2021/06/22 09:28:43;;;;;;;1.20;1.10;;;;;;;41.62;24.77;100222.84;6009238;23;20424;-82
2021/06/22 09:31:13;;;;;;;1.30;1.20;;;;;;;41.70;23.99;100230.44;6009677;23;20034;-83
2021/06/22 09:33:41;;;;;;;1.20;1.10;;;;;;;42.29;23.23;100218.91;5984286;23;20481;-81
2021/06/22 09:36:12;;;;;;;1.75;1.20;;;;;;;42.81;23.02;100218.31;5961622;23;20064;-82
2021/06/22 09:38:50;;;;;;;1.00;1.00;;;;;;;41.80;23.17;100212.97;5988285;23;20057;-79
2021/06/22 09:41:28;;;;;;;1.58;1.23;;;;;;;40.85;24.68;100205.06;5983678;23;20459;-82
2021/06/22 09:44:04;;;;;;;1.58;1.20;;;;;;;41.48;24.10;100222.28;5958422;23;20023;-82
2021/06/22 09:46:36;;;;;;;1.33;1.10;;;;;;;42.16;23.89;100211.47;6004658;23;20023;-83
2021/06/22 09:49:05;;;;;;;1.13;1.10;;;;;;;42.35;22.74;100211.00;6003787;23;20107;-80
2021/06/22 09:51:37;;;;;;;1.30;1.20;;;;;;;40.39;22.60;100209.53;6004677;23;20117;-81
2021/06/22 09:54:16;;;;;;;1.55;1.20;;;;;;;40.90;22.62;100202.84;5988862;23;20015;-80
2021/06/22 09:57:03;;;;;;;1.30;1.20;;;;;;;41.21;21.20;100213.03;6035512;23;20046;-82
2021/06/22 09:59:32;;;;;;;1.20;1.00;;;;;;;40.50;21.80;100206.00;6013188;23;20023;-82
2021/06/22 10:02:04;;;;;;;3.72;1.30;;;;;;;41.19;21.82;100207.72;6013413;23;20023;-82
2021/06/22 10:04:30;;;;;;;1.40;1.30;;;;;;;41.68;20.32;100216.56;6011525;23;20332;-81
2021/06/22 10:07:01;;;;;;;1.20;1.10;;;;;;;42.19;19.80;100207.94;6013246;23;20465;-82
2021/06/22 10:09:28;;;;;;;1.73;1.20;;;;;;;42.86;19.29;100209.56;6009854;23;20324;-82
2021/06/22 10:12:02;;;;;;;1.20;1.10;;;;;;;43.27;18.69;100215.38;6008706;23;20023;-80
2021/06/22 10:14:29;;;;;;;1.30;1.20;;;;;;;42.43;19.39;100206.41;6039433;23;20087;-83
2021/06/22 10:16:56;;;;;;;1.25;1.10;;;;;;;41.75;19.91;100204.66;6042237;23;20059;-84
2021/06/22 10:19:24;;;;;;;1.60;1.20;;;;;;;41.63;20.33;100201.78;6014738;23;20097;-84
2021/06/22 10:21:52;;;;;;;1.52;1.13;;;;;;;41.39;20.92;100202.41;6018064;23;20075;-82
2021/06/22 10:24:19;;;;;;;1.45;1.27;;;;;;;41.82;19.47;100199.25;6036174;23;20102;-83
2021/06/22 10:26:47;;;;;;;1.75;1.20;;;;;;;43.02;19.20;100201.13;5991546;23;20497;-81
2021/06/22 10:29:17;;;;;;;1.05;1.00;;;;;;;42.68;20.17;100199.59;5992683;23;20023;-82
2021/06/22 10:31:44;;;;;;;1.77;1.30;;;;;;;43.32;19.26;100203.72;6039341;23;20106;-85
2021/06/22 10:34:11;;;;;;;2.13;1.20;;;;;;;43.40;19.40;100199.91;6021266;23;20019;-83
2021/06/22 10:37:07;;;;;;;1.23;1.10;;;;;;;43.93;19.82;100199.94;6048788;23;20381;-84
2021/06/22 10:39:39;;;;;;;2.88;1.30;;;;;;;42.09;21.16;100199.84;5997666;23;20042;-81
2021/06/22 10:42:16;;;;;;;2.22;1.20;;;;;;;41.92;21.25;100195.19;6017960;23;20467;-81
2021/06/22 10:44:48;;;;;;;1.52;1.20;;;;;;;42.31;20.58;100188.13;6016436;23;20102;-82
2021/06/22 10:47:27;;;;;;;1.50;1.40;;;;;;;40.70;21.90;100195.09;6041401;23;20023;-83
2021/06/22 10:50:05;;;;;;;1.45;1.10;;;;;;;39.98;22.86;100189.09;5994030;23;20110;-84
2021/06/22 10:52:47;;;;;;;1.20;1.10;;;;;;;41.34;21.95;100189.25;6039515;23;20023;-84
2021/06/22 10:55:55;;;;;;;1.50;1.15;;;;;;;42.51;20.02;100180.69;6037046;23;20023;-80
2021/06/22 10:58:21;;;;;;;2.33;1.23;;;;;;;43.12;20.06;100188.47;6005866;23;20162;-80
2021/06/22 11:00:50;;;;;;;2.03;1.20;;;;;;;43.48;20.12;100183.91;6008808;23;20119;-82
2021/06/22 11:03:35;;;;;;;1.95;1.30;;;;;;;42.01;21.23;100170.34;5983752;23;20084;-82
2021/06/22 11:06:05;;;;;;;1.67;1.40;;;;;;;42.04;21.70;100180.19;5988858;23;20024;-83
2021/06/22 11:08:38;;;;;;;1.80;1.35;;;;;;;42.72;21.25;100171.28;5985078;23;20056;-85
2021/06/22 11:11:06;;;;;;;1.95;1.30;;;;;;;41.75;21.85;100173.41;5965102;23;20027;-84
2021/06/22 11:13:35;;;;;;;1.70;1.20;;;;;;;39.86;22.84;100183.28;6019515;23;20034;-80
2021/06/22 11:16:06;;;;;;;1.88;1.20;;;;;;;41.02;22.36;100175.78;5965810;23;20028;-82
2021/06/22 11:18:55;;;;;;;2.28;1.50;;;;;;;41.52;21.78;100166.47;5993232;23;20024;-82
2021/06/22 11:21:26;;;;;;;1.92;1.00;;;;;;;41.25;22.28;100173.47;5988735;23;20024;-83
2021/06/22 11:24:05;;;;;;;;;;;;;;;40.68;22.50;100160.59;5990625;23;20098;-83
2021/06/22 11:26:44;;;;;;;1.52;1.20;;;;;;;39.76;23.57;100163.81;6016297;23;19922;-82
2021/06/22 11:29:25;;;;;;;1.60;1.23;;;;;;;40.87;22.43;100166.66;5997343;23;20020;-82
2021/06/22 11:31:53;;;;;;;2.17;1.20;;;;;;;42.10;21.26;100165.41;6017157;23;20035;-82
2021/06/22 11:34:33;;;;;;;1.38;1.20;;;;;;;41.49;21.47;100169.97;6016367;23;20071;-83